Terminal Aerodrome Forecast
Issued by NWS Chicago, IL

Home | Current Version | Previous Version | Text Only | Print | Product List | Glossary Off
Versions: 1 2 3 4 5 6 7 8 9 10 11 12 13 14 15 16 17 18 19 20 21 22 23 24 25

107
FTUS43 KLOT 091128
TAFRFD
TAF
KRFD 091128Z 0912/1012 33015G22KT P6SM -SHSN SCT015 OVC040
      TEMPO 0912/0914 3SM -SHSN BKN015
     FM100200 33015G22KT P6SM SCT025 OVC050=

USA.gov is the U.S. government's official web portal to all federal, state and local government web resources and services.